Terminal Aerodrome Forecast
Issued by NWS Missoula, MT

Home | Current Version | Previous Version | Text Only | Print | Product List | Glossary On
Versions: 1 2 3 4 5 6 7 8 9 10 11 12 13 14 15 16 17 18 19 20 21
287
FTUS45 KMSO 180022 RRA
TAFBTM
TAF
KBTM 180022Z 1800/1824 00000KT P6SM OVC035
     FM180500 VRB03KT P6SM VCSH BKN040 BKN060
     FM181300 23010KT P6SM VCSH BKN050=

USA.gov is the U.S. government's official web portal to all federal, state and local government web resources and services.